Hasle, Denmark
Current Conditions -  °F | °C
As of 12:50 PM on Wednesday 28 Jan 2015 (Local Time) from EKRN Reporting Station
Overcast Overcast  
Wind Chill: 30°   Ceiling: 600
Heat Index: 39°   Visibility: 6mi
Dew Point: 37°   Wind: 20mph
Humidity: 93%   Direction: 220°SW
Pressure: 29.62"   Gusts: 32mph
Location:  55.18°N, 14.71°E
Report Text: EKRN 281150Z AUTO 22017G28KT 190V250 9999NDV OVC006///04/03 Q1003
Loading
Personal Weather Stations






























Interactive Weather Map New forecast layout! Learn more

10-Day Weather Forecast

Advertisements
Track Severe Weather on mobile